Track Павлов Дмитрий

Time Latitude Longitude Accuracy (66% radius in meters) Altitude (meters) Speed (km/hour) Bearing (degrees) Battery (%) GPS flag
07:33:51 57.209716 60.126891 4.2880001068115 291 0.80000001192093 10.699999809265 46 1 delete
07:33:48 57.209686 60.126879 4.2880001068115 287 1.0099999904633 4.1999998092651 46 1 delete
07:33:43 57.209627 60.126827 4.2880001068115 287 1.4500000476837 23.700000762939 46 1 delete
07:33:37 57.209557 60.126763 3.2160000801086 285 0.91000002622604 24.10000038147 46 1 delete
07:33:36 57.209547 60.126748 3.2160000801086 285 1.3200000524521 21.799999237061 46 1 delete
07:33:30 57.209466 60.126648 4.2880001068115 281 1.4099999666214 19.799999237061 46 1 delete
07:33:26 57.209417 60.126616 5.3600001335144 282 1.4400000572205 15.10000038147 46 1 delete
07:33:23 57.209382 60.126584 5.3600001335144 280 1.2699999809265 21.700000762939 46 1 delete
07:33:15 57.209288 60.126528 6.4320001602173 281 1.6499999761581 7.8000001907349 46 1 delete
07:33:09 57.209198 60.126452 7.5040001869202 281 1.3200000524521 1 46 1 delete
07:33:04 57.209121 60.126412 8.576000213623 286 1.7400000095367 5.3000001907349 46 1 delete
07:33:03 57.209101 60.126395 9.6480007171631 287 1.0800000429153 1.2000000476837 46 1 delete
07:32:55 57.209014 60.126301 8.576000213623 276 1.75 38.799999237061 46 1 delete
07:32:54 57.209000 60.126279 8.576000213623 276 1.8099999427795 41.299999237061 46 1 delete
07:32:50 57.208943 60.126188 8.576000213623 277 1.6699999570847 19.5 46 1 delete
07:32:43 57.208875 60.126146 5.3600001335144 285 0.72000002861023 336.60000610352 46 1 delete
07:32:39 57.208844 60.126143 4.2880001068115 283 1.2400000095367 14.10000038147 46 1 delete
07:32:32 57.208778 60.126095 4.2880001068115 285 0.83999997377396 345.20001220703 46 1 delete
07:32:28 57.208752 60.126076 4.2880001068115 284 1.5099999904633 55 46 1 delete
07:32:22 57.208691 60.125955 5.3600001335144 283 1.1900000572205 48.700000762939 46 1 delete
07:32:21 57.208682 60.125933 5.3600001335144 283 1.4299999475479 56 46 1 delete
07:32:16 57.208634 60.125792 7.5040001869202 283 0.91000002622604 23.799999237061 46 1 delete
07:32:11 57.208577 60.125683 10.720000267029 281 0.62000000476837 39.400001525879 46 1 delete
07:32:10 57.208568 60.125669 9.6480007171631 281 1.3400000333786 41.599998474121 46 1 delete
07:32:04 57.208509 60.125522 10.720000267029 282 1.1499999761581 52.700000762939 46 1 delete
07:32:00 57.208463 60.125442 10.720000267029 284 0.91000002622604 22.39999961853 46 1 delete
07:31:57 57.208426 60.125403 9.6480007171631 287 1.1599999666214 32.099998474121 46 1 delete
07:31:49 57.208340 60.125301 10.720000267029 284 0.8299999833107 39.599998474121 46 1 delete
07:31:39 57.208295 60.125241 7.5040001869202 286 0 0 46 1 delete
07:31:35 57.208289 60.125157 7.5040001869202 284 0.63999998569489 50.099998474121 46 1 delete
07:31:28 57.208217 60.125048 6.4320001602173 283 1.5700000524521 22.200000762939 46 1 delete
07:31:20 57.208158 60.124895 7.5040001869202 284 1.4099999666214 44.900001525879 46 1 delete
07:31:17 57.208126 60.124820 7.5040001869202 286 0.94999998807907 41.400001525879 46 1 delete
07:31:14 57.208103 60.124749 8.576000213623 284 0.91000002622604 38.700000762939 46 1 delete
07:31:06 57.208047 60.124670 7.5040001869202 288 1.1599999666214 32.599998474121 46 1 delete
07:31:04 57.208027 60.124646 8.576000213623 291 0.81999999284744 33.400001525879 46 1 delete
07:30:56 57.207960 60.124509 9.6480007171631 287 1.3700000047684 52.299999237061 46 1 delete
07:30:47 57.207900 60.124386 8.576000213623 290 1.3200000524521 59.5 46 1 delete
07:30:45 57.207885 60.124361 7.5040001869202 289 1.0599999427795 34.799999237061 46 1 delete
07:30:35 57.207834 60.124249 7.5040001869202 296 0.99000000953674 74.900001525879 46 1 delete
07:30:33 57.207832 60.124221 6.4320001602173 297 0.81999999284744 88 46 1 delete
07:30:26 57.207843 60.124084 7.5040001869202 298 1.1399999856949 108.09999847412 46 1 delete
07:30:22 57.207841 60.123938 6.4320001602173 296 1.9500000476837 66.900001525879 46 1 delete
07:30:21 57.207836 60.123904 5.3600001335144 295 1.5900000333786 60 46 1 delete
07:30:12 57.207818 60.123718 5.3600001335144 294 1.2599999904633 73.300003051758 46 1 delete
07:30:11 57.207819 60.123707 4.2880001068115 297 1.039999961853 64.099998474121 46 1 delete
07:30:05 57.207762 60.123587 5.3600001335144 302 1.8700000047684 24 46 1 delete
07:30:00 57.207698 60.123559 5.3600001335144 303 1.3200000524521 15.10000038147 46 1 delete
07:29:58 57.207673 60.123537 5.3600001335144 302 1.25 15.89999961853 46 1 delete
07:29:51 57.207645 60.123378 4.2880001068115 305 1.3200000524521 88.400001525879 46 1 delete